sensor_id;sensor_type;location;lat;lon;timestamp;P1;durP1;ratioP1;P2;durP2;ratioP2
78004;SDS011;67209;51.698;-0.292;2023-09-08T00:00:00;45.78;;;28.55;;
78004;SDS011;67209;51.698;-0.292;2023-09-08T00:02:26;43.80;;;27.20;;
78004;SDS011;67209;51.698;-0.292;2023-09-08T00:04:52;43.65;;;28.05;;
78004;SDS011;67209;51.698;-0.292;2023-09-08T00:07:18;39.65;;;26.55;;
78004;SDS011;67209;51.698;-0.292;2023-09-08T00:09:44;37.15;;;24.35;;
78004;SDS011;67209;51.698;-0.292;2023-09-08T00:12:10;36.08;;;22.45;;
78004;SDS011;67209;51.698;-0.292;2023-09-08T00:14:36;36.88;;;23.70;;
78004;SDS011;67209;51.698;-0.292;2023-09-08T00:17:03;37.55;;;25.27;;
78004;SDS011;67209;51.698;-0.292;2023-09-08T00:19:30;37.08;;;23.15;;
78004;SDS011;67209;51.698;-0.292;2023-09-08T00:21:56;34.50;;;23.08;;
78004;SDS011;67209;51.698;-0.292;2023-09-08T00:24:23;31.92;;;22.20;;
78004;SDS011;67209;51.698;-0.292;2023-09-08T00:26:49;40.28;;;26.42;;
78004;SDS011;67209;51.698;-0.292;2023-09-08T00:29:15;39.95;;;26.75;;
78004;SDS011;67209;51.698;-0.292;2023-09-08T00:31:41;40.05;;;25.90;;
78004;SDS011;67209;51.698;-0.292;2023-09-08T00:34:07;37.45;;;25.42;;
78004;SDS011;67209;51.698;-0.292;2023-09-08T00:36:33;37.78;;;24.50;;
78004;SDS011;67209;51.698;-0.292;2023-09-08T00:38:59;35.95;;;24.20;;
78004;SDS011;67209;51.698;-0.292;2023-09-08T00:41:25;33.38;;;22.45;;
78004;SDS011;67209;51.698;-0.292;2023-09-08T00:43:51;30.58;;;21.45;;
78004;SDS011;67209;51.698;-0.292;2023-09-08T00:46:17;30.38;;;20.77;;
78004;SDS011;67209;51.698;-0.292;2023-09-08T00:48:43;33.08;;;20.30;;
78004;SDS011;67209;51.698;-0.292;2023-09-08T00:51:10;28.65;;;17.95;;
78004;SDS011;67209;51.698;-0.292;2023-09-08T00:53:36;27.65;;;19.88;;
78004;SDS011;67209;51.698;-0.292;2023-09-08T00:56:03;28.25;;;20.30;;
78004;SDS011;67209;51.698;-0.292;2023-09-08T00:58:29;31.42;;;18.15;;
78004;SDS011;67209;51.698;-0.292;2023-09-08T01:00:55;36.97;;;25.30;;
78004;SDS011;67209;51.698;-0.292;2023-09-08T01:03:24;33.47;;;19.58;;
78004;SDS011;67209;51.698;-0.292;2023-09-08T01:05:50;37.30;;;25.35;;
78004;SDS011;67209;51.698;-0.292;2023-09-08T01:08:17;36.80;;;23.20;;
78004;SDS011;67209;51.698;-0.292;2023-09-08T01:10:43;28.80;;;19.45;;
78004;SDS011;67209;51.698;-0.292;2023-09-08T01:13:09;41.60;;;27.42;;
78004;SDS011;67209;51.698;-0.292;2023-09-08T01:15:36;39.40;;;27.17;;
78004;SDS011;67209;51.698;-0.292;2023-09-08T01:18:02;38.45;;;25.77;;
78004;SDS011;67209;51.698;-0.292;2023-09-08T01:20:35;36.88;;;26.10;;
78004;SDS011;67209;51.698;-0.292;2023-09-08T01:25:31;34.38;;;23.63;;
78004;SDS011;67209;51.698;-0.292;2023-09-08T01:27:58;32.88;;;22.00;;
78004;SDS011;67209;51.698;-0.292;2023-09-08T01:30:26;29.70;;;19.50;;
78004;SDS011;67209;51.698;-0.292;2023-09-08T01:32:53;30.38;;;19.58;;
78004;SDS011;67209;51.698;-0.292;2023-09-08T01:35:20;30.92;;;21.17;;
78004;SDS011;67209;51.698;-0.292;2023-09-08T01:37:47;27.63;;;20.88;;
78004;SDS011;67209;51.698;-0.292;2023-09-08T01:40:13;29.92;;;20.33;;
78004;SDS011;67209;51.698;-0.292;2023-09-08T01:42:39;30.88;;;20.67;;
78004;SDS011;67209;51.698;-0.292;2023-09-08T01:45:05;28.85;;;18.60;;
78004;SDS011;67209;51.698;-0.292;2023-09-08T01:47:32;27.73;;;19.83;;
78004;SDS011;67209;51.698;-0.292;2023-09-08T01:49:58;27.73;;;19.85;;
78004;SDS011;67209;51.698;-0.292;2023-09-08T01:52:24;31.58;;;19.60;;
78004;SDS011;67209;51.698;-0.292;2023-09-08T01:54:50;26.50;;;18.38;;
78004;SDS011;67209;51.698;-0.292;2023-09-08T01:57:16;24.27;;;18.23;;
78004;SDS011;67209;51.698;-0.292;2023-09-08T01:59:43;34.60;;;23.17;;
78004;SDS011;67209;51.698;-0.292;2023-09-08T02:02:10;26.67;;;18.98;;
78004;SDS011;67209;51.698;-0.292;2023-09-08T02:04:36;31.60;;;20.23;;
78004;SDS011;67209;51.698;-0.292;2023-09-08T02:07:02;33.50;;;21.67;;
78004;SDS011;67209;51.698;-0.292;2023-09-08T02:09:32;28.05;;;19.98;;
78004;SDS011;67209;51.698;-0.292;2023-09-08T02:11:58;25.60;;;18.35;;
78004;SDS011;67209;51.698;-0.292;2023-09-08T02:14:24;23.23;;;17.60;;
78004;SDS011;67209;51.698;-0.292;2023-09-08T02:16:50;22.98;;;15.32;;
78004;SDS011;67209;51.698;-0.292;2023-09-08T02:19:16;23.52;;;17.33;;
78004;SDS011;67209;51.698;-0.292;2023-09-08T02:21:42;24.67;;;17.67;;
78004;SDS011;67209;51.698;-0.292;2023-09-08T02:24:08;30.77;;;19.95;;
78004;SDS011;67209;51.698;-0.292;2023-09-08T02:26:34;29.08;;;21.70;;
78004;SDS011;67209;51.698;-0.292;2023-09-08T02:29:00;31.55;;;22.27;;
78004;SDS011;67209;51.698;-0.292;2023-09-08T02:31:27;32.25;;;22.90;;
78004;SDS011;67209;51.698;-0.292;2023-09-08T02:33:53;25.42;;;19.17;;
78004;SDS011;67209;51.698;-0.292;2023-09-08T02:36:19;24.85;;;17.60;;
78004;SDS011;67209;51.698;-0.292;2023-09-08T02:38:53;21.73;;;15.95;;
78004;SDS011;67209;51.698;-0.292;2023-09-08T02:41:19;17.80;;;13.98;;
78004;SDS011;67209;51.698;-0.292;2023-09-08T02:43:46;19.63;;;14.27;;
78004;SDS011;67209;51.698;-0.292;2023-09-08T02:46:12;18.40;;;12.27;;
78004;SDS011;67209;51.698;-0.292;2023-09-08T02:48:38;18.75;;;13.80;;
78004;SDS011;67209;51.698;-0.292;2023-09-08T02:51:04;20.33;;;14.80;;
78004;SDS011;67209;51.698;-0.292;2023-09-08T02:53:30;24.08;;;14.95;;
78004;SDS011;67209;51.698;-0.292;2023-09-08T02:55:59;16.90;;;12.65;;
78004;SDS011;67209;51.698;-0.292;2023-09-08T02:58:25;15.27;;;11.93;;
78004;SDS011;67209;51.698;-0.292;2023-09-08T03:00:52;18.73;;;13.63;;
78004;SDS011;67209;51.698;-0.292;2023-09-08T03:03:19;17.67;;;12.15;;
78004;SDS011;67209;51.698;-0.292;2023-09-08T03:05:45;16.92;;;12.77;;
78004;SDS011;67209;51.698;-0.292;2023-09-08T03:08:11;16.73;;;13.25;;
78004;SDS011;67209;51.698;-0.292;2023-09-08T03:10:37;19.00;;;13.25;;
78004;SDS011;67209;51.698;-0.292;2023-09-08T03:13:03;17.48;;;12.52;;
78004;SDS011;67209;51.698;-0.292;2023-09-08T03:15:29;17.52;;;12.10;;
78004;SDS011;67209;51.698;-0.292;2023-09-08T03:17:55;19.80;;;13.13;;
78004;SDS011;67209;51.698;-0.292;2023-09-08T03:20:23;19.85;;;13.80;;
78004;SDS011;67209;51.698;-0.292;2023-09-08T03:22:49;18.02;;;13.32;;
78004;SDS011;67209;51.698;-0.292;2023-09-08T03:25:15;19.75;;;15.23;;
78004;SDS011;67209;51.698;-0.292;2023-09-08T03:27:41;18.23;;;13.77;;
78004;SDS011;67209;51.698;-0.292;2023-09-08T03:30:07;18.13;;;12.55;;
78004;SDS011;67209;51.698;-0.292;2023-09-08T03:32:33;17.75;;;13.43;;
78004;SDS011;67209;51.698;-0.292;2023-09-08T03:34:59;17.30;;;12.10;;
78004;SDS011;67209;51.698;-0.292;2023-09-08T03:37:25;18.05;;;13.73;;
78004;SDS011;67209;51.698;-0.292;2023-09-08T03:39:52;18.17;;;13.05;;
78004;SDS011;67209;51.698;-0.292;2023-09-08T03:42:18;18.42;;;14.20;;
78004;SDS011;67209;51.698;-0.292;2023-09-08T03:44:44;18.17;;;13.48;;
78004;SDS011;67209;51.698;-0.292;2023-09-08T03:47:10;21.95;;;15.25;;
78004;SDS011;67209;51.698;-0.292;2023-09-08T03:49:36;20.98;;;14.07;;
78004;SDS011;67209;51.698;-0.292;2023-09-08T03:52:02;22.67;;;16.38;;
78004;SDS011;67209;51.698;-0.292;2023-09-08T03:54:28;22.63;;;16.25;;
78004;SDS011;67209;51.698;-0.292;2023-09-08T03:56:54;22.52;;;16.98;;
78004;SDS011;67209;51.698;-0.292;2023-09-08T03:59:20;23.15;;;14.77;;
78004;SDS011;67209;51.698;-0.292;2023-09-08T04:01:46;20.02;;;14.65;;
78004;SDS011;67209;51.698;-0.292;2023-09-08T04:04:12;20.50;;;15.07;;
78004;SDS011;67209;51.698;-0.292;2023-09-08T04:06:38;18.40;;;12.90;;
78004;SDS011;67209;51.698;-0.292;2023-09-08T04:09:04;23.88;;;16.48;;
78004;SDS011;67209;51.698;-0.292;2023-09-08T04:11:30;22.85;;;16.25;;
78004;SDS011;67209;51.698;-0.292;2023-09-08T04:13:56;20.88;;;15.27;;
78004;SDS011;67209;51.698;-0.292;2023-09-08T04:16:22;19.33;;;13.05;;
78004;SDS011;67209;51.698;-0.292;2023-09-08T04:18:48;19.65;;;14.50;;
78004;SDS011;67209;51.698;-0.292;2023-09-08T04:21:14;18.58;;;14.35;;
78004;SDS011;67209;51.698;-0.292;2023-09-08T04:23:41;18.80;;;14.13;;
78004;SDS011;67209;51.698;-0.292;2023-09-08T04:26:07;17.30;;;13.05;;
78004;SDS011;67209;51.698;-0.292;2023-09-08T04:28:33;17.70;;;13.80;;
78004;SDS011;67209;51.698;-0.292;2023-09-08T04:31:00;17.15;;;11.90;;
78004;SDS011;67209;51.698;-0.292;2023-09-08T04:33:25;15.18;;;11.55;;
78004;SDS011;67209;51.698;-0.292;2023-09-08T04:35:51;14.70;;;11.43;;
78004;SDS011;67209;51.698;-0.292;2023-09-08T04:38:17;17.73;;;12.77;;
78004;SDS011;67209;51.698;-0.292;2023-09-08T04:40:45;15.73;;;10.60;;
78004;SDS011;67209;51.698;-0.292;2023-09-08T04:43:11;13.07;;;10.77;;
78004;SDS011;67209;51.698;-0.292;2023-09-08T04:45:37;15.18;;;11.48;;
78004;SDS011;67209;51.698;-0.292;2023-09-08T04:48:04;15.35;;;11.05;;
78004;SDS011;67209;51.698;-0.292;2023-09-08T04:50:30;15.82;;;11.63;;
78004;SDS011;67209;51.698;-0.292;2023-09-08T04:52:56;15.68;;;11.23;;
78004;SDS011;67209;51.698;-0.292;2023-09-08T04:55:22;12.40;;;9.00;;
78004;SDS011;67209;51.698;-0.292;2023-09-08T04:57:48;13.35;;;10.27;;
78004;SDS011;67209;51.698;-0.292;2023-09-08T05:00:14;13.85;;;9.93;;
78004;SDS011;67209;51.698;-0.292;2023-09-08T05:02:40;14.55;;;8.32;;
78004;SDS011;67209;51.698;-0.292;2023-09-08T05:05:06;13.50;;;9.48;;
78004;SDS011;67209;51.698;-0.292;2023-09-08T05:07:32;14.25;;;10.25;;
78004;SDS011;67209;51.698;-0.292;2023-09-08T05:09:59;13.88;;;9.45;;
78004;SDS011;67209;51.698;-0.292;2023-09-08T05:12:24;14.57;;;9.27;;
78004;SDS011;67209;51.698;-0.292;2023-09-08T05:14:50;13.38;;;10.20;;
78004;SDS011;67209;51.698;-0.292;2023-09-08T05:17:21;13.60;;;9.88;;
78004;SDS011;67209;51.698;-0.292;2023-09-08T05:19:47;11.07;;;8.73;;
78004;SDS011;67209;51.698;-0.292;2023-09-08T05:22:13;11.57;;;8.38;;
78004;SDS011;67209;51.698;-0.292;2023-09-08T05:24:39;20.35;;;14.88;;
78004;SDS011;67209;51.698;-0.292;2023-09-08T05:27:05;20.42;;;14.30;;
78004;SDS011;67209;51.698;-0.292;2023-09-08T05:29:31;17.92;;;14.02;;
78004;SDS011;67209;51.698;-0.292;2023-09-08T05:31:57;19.30;;;14.73;;
78004;SDS011;67209;51.698;-0.292;2023-09-08T05:34:23;18.10;;;14.30;;
78004;SDS011;67209;51.698;-0.292;2023-09-08T05:36:49;22.20;;;17.60;;
78004;SDS011;67209;51.698;-0.292;2023-09-08T05:39:15;24.65;;;19.17;;
78004;SDS011;67209;51.698;-0.292;2023-09-08T05:41:44;24.63;;;18.38;;
78004;SDS011;67209;51.698;-0.292;2023-09-08T05:44:10;24.83;;;17.08;;
78004;SDS011;67209;51.698;-0.292;2023-09-08T05:46:36;26.38;;;17.27;;
78004;SDS011;67209;51.698;-0.292;2023-09-08T05:49:02;28.70;;;20.30;;
78004;SDS011;67209;51.698;-0.292;2023-09-08T05:51:28;29.58;;;20.73;;
78004;SDS011;67209;51.698;-0.292;2023-09-08T05:53:54;28.95;;;19.70;;
78004;SDS011;67209;51.698;-0.292;2023-09-08T05:56:20;30.23;;;21.48;;
78004;SDS011;67209;51.698;-0.292;2023-09-08T05:58:46;29.48;;;21.00;;
78004;SDS011;67209;51.698;-0.292;2023-09-08T06:01:12;27.60;;;20.25;;
78004;SDS011;67209;51.698;-0.292;2023-09-08T06:03:38;24.70;;;18.67;;
78004;SDS011;67209;51.698;-0.292;2023-09-08T06:06:04;28.63;;;18.77;;
78004;SDS011;67209;51.698;-0.292;2023-09-08T06:08:30;24.77;;;16.95;;
78004;SDS011;67209;51.698;-0.292;2023-09-08T06:10:56;23.92;;;16.85;;
78004;SDS011;67209;51.698;-0.292;2023-09-08T06:13:22;22.75;;;15.32;;
78004;SDS011;67209;51.698;-0.292;2023-09-08T06:15:48;20.25;;;15.77;;
78004;SDS011;67209;51.698;-0.292;2023-09-08T06:18:14;18.40;;;13.05;;
78004;SDS011;67209;51.698;-0.292;2023-09-08T06:20:46;18.23;;;12.52;;
78004;SDS011;67209;51.698;-0.292;2023-09-08T06:23:13;14.10;;;10.32;;
78004;SDS011;67209;51.698;-0.292;2023-09-08T06:25:40;12.10;;;9.48;;
78004;SDS011;67209;51.698;-0.292;2023-09-08T06:28:06;12.02;;;9.32;;
78004;SDS011;67209;51.698;-0.292;2023-09-08T06:30:32;17.20;;;14.23;;
78004;SDS011;67209;51.698;-0.292;2023-09-08T06:32:58;21.52;;;15.18;;
78004;SDS011;67209;51.698;-0.292;2023-09-08T06:35:25;26.27;;;19.08;;
78004;SDS011;67209;51.698;-0.292;2023-09-08T06:37:52;27.35;;;20.05;;
78004;SDS011;67209;51.698;-0.292;2023-09-08T06:40:18;26.60;;;20.02;;
78004;SDS011;67209;51.698;-0.292;2023-09-08T06:42:43;26.20;;;20.00;;
78004;SDS011;67209;51.698;-0.292;2023-09-08T06:45:09;25.05;;;18.80;;
78004;SDS011;67209;51.698;-0.292;2023-09-08T06:47:35;25.70;;;18.67;;
78004;SDS011;67209;51.698;-0.292;2023-09-08T06:50:01;25.77;;;19.20;;
78004;SDS011;67209;51.698;-0.292;2023-09-08T06:52:28;27.50;;;20.52;;
78004;SDS011;67209;51.698;-0.292;2023-09-08T06:54:53;27.65;;;19.58;;
78004;SDS011;67209;51.698;-0.292;2023-09-08T06:57:20;27.42;;;20.42;;
78004;SDS011;67209;51.698;-0.292;2023-09-08T06:59:46;24.88;;;18.35;;
78004;SDS011;67209;51.698;-0.292;2023-09-08T07:02:12;27.00;;;20.02;;
78004;SDS011;67209;51.698;-0.292;2023-09-08T07:04:38;26.58;;;18.90;;
78004;SDS011;67209;51.698;-0.292;2023-09-08T07:07:04;29.92;;;20.05;;
78004;SDS011;67209;51.698;-0.292;2023-09-08T07:09:32;32.70;;;23.17;;
78004;SDS011;67209;51.698;-0.292;2023-09-08T07:11:58;30.33;;;20.63;;
78004;SDS011;67209;51.698;-0.292;2023-09-08T07:14:24;36.40;;;24.30;;
78004;SDS011;67209;51.698;-0.292;2023-09-08T07:16:50;32.63;;;23.83;;
78004;SDS011;67209;51.698;-0.292;2023-09-08T07:19:16;31.40;;;22.33;;
78004;SDS011;67209;51.698;-0.292;2023-09-08T07:21:42;34.95;;;24.05;;
78004;SDS011;67209;51.698;-0.292;2023-09-08T07:24:08;29.67;;;22.80;;
78004;SDS011;67209;51.698;-0.292;2023-09-08T07:26:34;29.02;;;19.25;;
78004;SDS011;67209;51.698;-0.292;2023-09-08T07:29:00;30.80;;;22.90;;
78004;SDS011;67209;51.698;-0.292;2023-09-08T07:31:26;34.83;;;23.70;;
78004;SDS011;67209;51.698;-0.292;2023-09-08T07:33:54;34.92;;;24.65;;
78004;SDS011;67209;51.698;-0.292;2023-09-08T07:36:20;36.85;;;24.90;;
78004;SDS011;67209;51.698;-0.292;2023-09-08T07:38:46;34.35;;;24.70;;
78004;SDS011;67209;51.698;-0.292;2023-09-08T07:41:12;33.85;;;24.45;;
78004;SDS011;67209;51.698;-0.292;2023-09-08T07:43:38;32.75;;;20.98;;
78004;SDS011;67209;51.698;-0.292;2023-09-08T07:46:06;37.83;;;24.23;;
78004;SDS011;67209;51.698;-0.292;2023-09-08T07:48:32;33.88;;;24.30;;
78004;SDS011;67209;51.698;-0.292;2023-09-08T07:50:58;32.97;;;23.83;;
78004;SDS011;67209;51.698;-0.292;2023-09-08T07:53:25;35.92;;;23.75;;
78004;SDS011;67209;51.698;-0.292;2023-09-08T07:55:51;30.30;;;21.65;;
78004;SDS011;67209;51.698;-0.292;2023-09-08T07:58:17;33.25;;;22.33;;
78004;SDS011;67209;51.698;-0.292;2023-09-08T08:00:43;35.60;;;23.92;;
78004;SDS011;67209;51.698;-0.292;2023-09-08T08:03:09;31.58;;;22.95;;
78004;SDS011;67209;51.698;-0.292;2023-09-08T08:05:35;30.45;;;22.40;;
78004;SDS011;67209;51.698;-0.292;2023-09-08T08:08:01;29.00;;;19.98;;
78004;SDS011;67209;51.698;-0.292;2023-09-08T08:10:27;27.17;;;19.17;;
78004;SDS011;67209;51.698;-0.292;2023-09-08T08:12:53;22.73;;;16.33;;
78004;SDS011;67209;51.698;-0.292;2023-09-08T08:15:20;23.05;;;14.93;;
78004;SDS011;67209;51.698;-0.292;2023-09-08T08:17:49;24.48;;;15.45;;
78004;SDS011;67209;51.698;-0.292;2023-09-08T08:20:15;21.05;;;13.93;;
78004;SDS011;67209;51.698;-0.292;2023-09-08T08:22:44;17.38;;;13.75;;
78004;SDS011;67209;51.698;-0.292;2023-09-08T08:25:11;19.25;;;11.88;;
78004;SDS011;67209;51.698;-0.292;2023-09-08T08:27:40;14.63;;;10.93;;
78004;SDS011;67209;51.698;-0.292;2023-09-08T08:30:07;16.90;;;12.55;;
78004;SDS011;67209;51.698;-0.292;2023-09-08T08:32:33;15.57;;;12.13;;
78004;SDS011;67209;51.698;-0.292;2023-09-08T08:34:59;18.00;;;13.05;;
78004;SDS011;67209;51.698;-0.292;2023-09-08T08:37:25;18.88;;;11.95;;
78004;SDS011;67209;51.698;-0.292;2023-09-08T08:39:52;15.00;;;12.45;;
78004;SDS011;67209;51.698;-0.292;2023-09-08T08:42:18;13.95;;;11.77;;
78004;SDS011;67209;51.698;-0.292;2023-09-08T08:44:48;15.55;;;11.55;;
78004;SDS011;67209;51.698;-0.292;2023-09-08T08:47:15;13.40;;;9.90;;
78004;SDS011;67209;51.698;-0.292;2023-09-08T08:49:45;14.80;;;11.48;;
78004;SDS011;67209;51.698;-0.292;2023-09-08T08:52:12;11.73;;;9.25;;
78004;SDS011;67209;51.698;-0.292;2023-09-08T08:54:39;11.18;;;8.10;;
78004;SDS011;67209;51.698;-0.292;2023-09-08T08:57:05;11.60;;;8.27;;
78004;SDS011;67209;51.698;-0.292;2023-09-08T08:59:32;11.55;;;8.68;;
78004;SDS011;67209;51.698;-0.292;2023-09-08T09:01:58;10.35;;;8.90;;
78004;SDS011;67209;51.698;-0.292;2023-09-08T09:04:25;9.73;;;7.70;;
78004;SDS011;67209;51.698;-0.292;2023-09-08T09:06:54;10.35;;;7.03;;
78004;SDS011;67209;51.698;-0.292;2023-09-08T09:09:20;10.05;;;8.40;;
78004;SDS011;67209;51.698;-0.292;2023-09-08T09:11:46;11.70;;;9.18;;
78004;SDS011;67209;51.698;-0.292;2023-09-08T09:14:12;11.95;;;9.85;;
78004;SDS011;67209;51.698;-0.292;2023-09-08T09:16:39;12.27;;;9.13;;
78004;SDS011;67209;51.698;-0.292;2023-09-08T09:19:05;13.45;;;9.45;;
78004;SDS011;67209;51.698;-0.292;2023-09-08T09:21:41;13.18;;;9.50;;
78004;SDS011;67209;51.698;-0.292;2023-09-08T09:24:08;10.05;;;8.65;;
78004;SDS011;67209;51.698;-0.292;2023-09-08T09:26:39;15.07;;;10.40;;
78004;SDS011;67209;51.698;-0.292;2023-09-08T09:29:11;14.35;;;8.80;;
78004;SDS011;67209;51.698;-0.292;2023-09-08T09:31:40;12.25;;;9.82;;
78004;SDS011;67209;51.698;-0.292;2023-09-08T09:34:15;10.70;;;9.05;;
78004;SDS011;67209;51.698;-0.292;2023-09-08T09:36:42;12.32;;;9.07;;
78004;SDS011;67209;51.698;-0.292;2023-09-08T09:39:10;10.40;;;8.38;;
78004;SDS011;67209;51.698;-0.292;2023-09-08T09:41:36;10.27;;;9.18;;
78004;SDS011;67209;51.698;-0.292;2023-09-08T09:44:03;12.20;;;9.77;;
78004;SDS011;67209;51.698;-0.292;2023-09-08T09:46:29;12.57;;;8.15;;
78004;SDS011;67209;51.698;-0.292;2023-09-08T09:48:55;11.45;;;8.60;;
78004;SDS011;67209;51.698;-0.292;2023-09-08T09:51:21;10.57;;;8.45;;
78004;SDS011;67209;51.698;-0.292;2023-09-08T09:53:51;11.00;;;8.63;;
78004;SDS011;67209;51.698;-0.292;2023-09-08T09:56:17;12.38;;;8.07;;
78004;SDS011;67209;51.698;-0.292;2023-09-08T09:58:43;11.90;;;8.98;;
78004;SDS011;67209;51.698;-0.292;2023-09-08T10:01:10;8.18;;;6.43;;
78004;SDS011;67209;51.698;-0.292;2023-09-08T10:03:37;10.02;;;6.78;;
78004;SDS011;67209;51.698;-0.292;2023-09-08T10:06:03;10.82;;;7.30;;
78004;SDS011;67209;51.698;-0.292;2023-09-08T10:08:30;7.28;;;6.57;;
78004;SDS011;67209;51.698;-0.292;2023-09-08T10:10:58;10.55;;;6.63;;
78004;SDS011;67209;51.698;-0.292;2023-09-08T10:13:28;10.68;;;7.50;;
78004;SDS011;67209;51.698;-0.292;2023-09-08T10:15:57;11.57;;;8.13;;
78004;SDS011;67209;51.698;-0.292;2023-09-08T10:18:24;11.82;;;6.78;;
78004;SDS011;67209;51.698;-0.292;2023-09-08T10:20:51;10.20;;;7.25;;
78004;SDS011;67209;51.698;-0.292;2023-09-08T10:23:40;14.07;;;7.22;;
78004;SDS011;67209;51.698;-0.292;2023-09-08T10:26:05;8.80;;;7.10;;
78004;SDS011;67209;51.698;-0.292;2023-09-08T10:28:31;13.30;;;7.85;;
78004;SDS011;67209;51.698;-0.292;2023-09-08T10:30:58;9.68;;;5.88;;
78004;SDS011;67209;51.698;-0.292;2023-09-08T10:33:24;11.10;;;6.85;;
78004;SDS011;67209;51.698;-0.292;2023-09-08T10:35:51;10.70;;;7.43;;
78004;SDS011;67209;51.698;-0.292;2023-09-08T10:38:21;11.20;;;7.80;;
78004;SDS011;67209;51.698;-0.292;2023-09-08T10:40:48;10.57;;;6.38;;
78004;SDS011;67209;51.698;-0.292;2023-09-08T10:43:14;11.15;;;6.90;;
78004;SDS011;67209;51.698;-0.292;2023-09-08T10:45:40;8.45;;;6.75;;
78004;SDS011;67209;51.698;-0.292;2023-09-08T10:48:09;7.53;;;6.75;;
78004;SDS011;67209;51.698;-0.292;2023-09-08T10:50:38;7.40;;;6.55;;
78004;SDS011;67209;51.698;-0.292;2023-09-08T10:58:19;8.68;;;7.03;;
78004;SDS011;67209;51.698;-0.292;2023-09-08T11:00:54;10.30;;;6.82;;
78004;SDS011;67209;51.698;-0.292;2023-09-08T11:03:42;10.73;;;8.85;;
78004;SDS011;67209;51.698;-0.292;2023-09-08T11:06:09;9.52;;;7.55;;
78004;SDS011;67209;51.698;-0.292;2023-09-08T11:08:41;11.57;;;7.38;;
78004;SDS011;67209;51.698;-0.292;2023-09-08T11:11:07;7.28;;;6.35;;
78004;SDS011;67209;51.698;-0.292;2023-09-08T11:13:33;12.75;;;7.10;;
78004;SDS011;67209;51.698;-0.292;2023-09-08T11:15:59;9.73;;;7.38;;
78004;SDS011;67209;51.698;-0.292;2023-09-08T11:18:28;9.88;;;7.00;;
78004;SDS011;67209;51.698;-0.292;2023-09-08T11:20:54;7.28;;;6.28;;
78004;SDS011;67209;51.698;-0.292;2023-09-08T11:23:21;8.73;;;5.90;;
78004;SDS011;67209;51.698;-0.292;2023-09-08T11:25:47;9.07;;;6.43;;
78004;SDS011;67209;51.698;-0.292;2023-09-08T11:28:15;8.23;;;7.10;;
78004;SDS011;67209;51.698;-0.292;2023-09-08T11:30:41;9.00;;;6.85;;
78004;SDS011;67209;51.698;-0.292;2023-09-08T11:33:14;8.75;;;6.57;;
78004;SDS011;67209;51.698;-0.292;2023-09-08T11:35:40;7.28;;;5.97;;
78004;SDS011;67209;51.698;-0.292;2023-09-08T11:38:09;12.05;;;6.95;;
78004;SDS011;67209;51.698;-0.292;2023-09-08T11:40:35;7.25;;;6.07;;
78004;SDS011;67209;51.698;-0.292;2023-09-08T11:43:02;7.88;;;6.85;;
78004;SDS011;67209;51.698;-0.292;2023-09-08T11:45:28;7.22;;;6.53;;
78004;SDS011;67209;51.698;-0.292;2023-09-08T11:47:55;6.85;;;6.22;;
78004;SDS011;67209;51.698;-0.292;2023-09-08T11:50:21;7.60;;;6.18;;
78004;SDS011;67209;51.698;-0.292;2023-09-08T11:52:50;8.50;;;5.90;;
78004;SDS011;67209;51.698;-0.292;2023-09-08T11:55:16;7.15;;;5.90;;
78004;SDS011;67209;51.698;-0.292;2023-09-08T11:57:44;6.47;;;5.88;;
78004;SDS011;67209;51.698;-0.292;2023-09-08T12:00:11;7.30;;;5.07;;
78004;SDS011;67209;51.698;-0.292;2023-09-08T12:02:41;7.43;;;6.15;;
78004;SDS011;67209;51.698;-0.292;2023-09-08T12:05:11;6.00;;;5.50;;
78004;SDS011;67209;51.698;-0.292;2023-09-08T12:07:37;9.07;;;6.95;;
78004;SDS011;67209;51.698;-0.292;2023-09-08T12:10:10;6.78;;;6.10;;
78004;SDS011;67209;51.698;-0.292;2023-09-08T12:12:43;8.95;;;6.28;;
78004;SDS011;67209;51.698;-0.292;2023-09-08T12:15:09;10.07;;;6.70;;
78004;SDS011;67209;51.698;-0.292;2023-09-08T12:17:46;11.10;;;6.65;;
78004;SDS011;67209;51.698;-0.292;2023-09-08T12:20:13;7.13;;;6.43;;
78004;SDS011;67209;51.698;-0.292;2023-09-08T12:22:46;7.78;;;5.82;;
78004;SDS011;67209;51.698;-0.292;2023-09-08T12:25:13;8.60;;;4.72;;
78004;SDS011;67209;51.698;-0.292;2023-09-08T12:27:40;6.70;;;5.53;;
78004;SDS011;67209;51.698;-0.292;2023-09-08T12:30:06;10.82;;;6.35;;
78004;SDS011;67209;51.698;-0.292;2023-09-08T12:32:33;6.95;;;5.97;;
78004;SDS011;67209;51.698;-0.292;2023-09-08T12:35:01;7.00;;;6.30;;
78004;SDS011;67209;51.698;-0.292;2023-09-08T12:37:28;8.10;;;6.30;;
78004;SDS011;67209;51.698;-0.292;2023-09-08T12:39:57;7.50;;;6.40;;
78004;SDS011;67209;51.698;-0.292;2023-09-08T12:42:26;7.78;;;5.90;;
78004;SDS011;67209;51.698;-0.292;2023-09-08T12:44:54;9.07;;;6.30;;
78004;SDS011;67209;51.698;-0.292;2023-09-08T12:47:20;6.72;;;5.43;;
78004;SDS011;67209;51.698;-0.292;2023-09-08T12:49:46;6.35;;;5.68;;
78004;SDS011;67209;51.698;-0.292;2023-09-08T12:52:12;7.00;;;5.95;;
78004;SDS011;67209;51.698;-0.292;2023-09-08T12:54:38;7.28;;;5.72;;
78004;SDS011;67209;51.698;-0.292;2023-09-08T12:57:04;6.90;;;6.20;;
78004;SDS011;67209;51.698;-0.292;2023-09-08T12:59:30;7.10;;;6.40;;
78004;SDS011;67209;51.698;-0.292;2023-09-08T13:01:56;7.70;;;6.90;;
78004;SDS011;67209;51.698;-0.292;2023-09-08T13:04:23;9.70;;;5.63;;
78004;SDS011;67209;51.698;-0.292;2023-09-08T13:06:49;12.52;;;6.57;;
78004;SDS011;67209;51.698;-0.292;2023-09-08T13:09:15;7.68;;;5.32;;
78004;SDS011;67209;51.698;-0.292;2023-09-08T13:11:41;6.60;;;5.35;;
78004;SDS011;67209;51.698;-0.292;2023-09-08T13:14:08;8.85;;;6.55;;
78004;SDS011;67209;51.698;-0.292;2023-09-08T13:16:34;7.85;;;6.25;;
78004;SDS011;67209;51.698;-0.292;2023-09-08T13:19:00;8.52;;;5.88;;
78004;SDS011;67209;51.698;-0.292;2023-09-08T13:21:26;7.00;;;6.22;;
78004;SDS011;67209;51.698;-0.292;2023-09-08T13:23:52;6.78;;;5.78;;
78004;SDS011;67209;51.698;-0.292;2023-09-08T13:26:18;6.38;;;5.78;;
78004;SDS011;67209;51.698;-0.292;2023-09-08T13:28:44;7.68;;;6.30;;
78004;SDS011;67209;51.698;-0.292;2023-09-08T13:31:10;8.90;;;6.75;;
78004;SDS011;67209;51.698;-0.292;2023-09-08T13:33:36;7.45;;;6.78;;
78004;SDS011;67209;51.698;-0.292;2023-09-08T13:36:02;10.32;;;6.63;;
78004;SDS011;67209;51.698;-0.292;2023-09-08T13:38:28;8.02;;;6.28;;
78004;SDS011;67209;51.698;-0.292;2023-09-08T13:40:54;7.15;;;6.10;;
78004;SDS011;67209;51.698;-0.292;2023-09-08T13:43:20;6.57;;;5.05;;
78004;SDS011;67209;51.698;-0.292;2023-09-08T13:45:46;7.30;;;6.15;;
78004;SDS011;67209;51.698;-0.292;2023-09-08T13:48:12;8.70;;;6.47;;
78004;SDS011;67209;51.698;-0.292;2023-09-08T13:50:38;6.50;;;5.05;;
78004;SDS011;67209;51.698;-0.292;2023-09-08T13:53:05;7.25;;;6.30;;
78004;SDS011;67209;51.698;-0.292;2023-09-08T13:55:31;8.57;;;6.30;;
78004;SDS011;67209;51.698;-0.292;2023-09-08T13:57:57;6.43;;;5.82;;
78004;SDS011;67209;51.698;-0.292;2023-09-08T14:00:24;6.93;;;5.88;;
78004;SDS011;67209;51.698;-0.292;2023-09-08T14:02:49;6.97;;;6.28;;
78004;SDS011;67209;51.698;-0.292;2023-09-08T14:05:15;9.20;;;6.13;;
78004;SDS011;67209;51.698;-0.292;2023-09-08T14:07:41;7.15;;;5.72;;
78004;SDS011;67209;51.698;-0.292;2023-09-08T14:10:07;9.93;;;6.30;;
78004;SDS011;67209;51.698;-0.292;2023-09-08T14:12:34;9.48;;;5.10;;
78004;SDS011;67209;51.698;-0.292;2023-09-08T14:15:00;6.63;;;5.82;;
78004;SDS011;67209;51.698;-0.292;2023-09-08T14:17:27;7.32;;;4.82;;
78004;SDS011;67209;51.698;-0.292;2023-09-08T14:19:53;7.40;;;5.93;;